createdAt,value
2016-09-26T15:04:52.368Z,50313
2016-09-26T15:05:16.963Z,1376
2016-09-26T15:05:42.899Z,259813
2016-09-26T15:05:53.788Z,73912
2016-09-26T15:06:07.628Z,59274
2016-09-26T15:06:18.282Z,126129
2016-09-26T15:06:47.068Z,112310
2016-09-26T15:07:15.782Z,110795
2016-09-26T15:58:23.345Z,1306
2016-09-26T15:58:43.904Z,780
2016-09-26T15:59:07.338Z,43236
2016-09-26T15:59:31.873Z,8844
2016-09-26T15:59:53.336Z,2560
2016-09-26T16:00:07.825Z,2561
2016-09-26T16:00:19.480Z,2570
2016-09-26T16:00:38.021Z,3791
2016-09-26T16:00:52.462Z,14308
2016-09-26T16:01:09.583Z,12759
2016-09-26T16:01:24.103Z,43123
2016-09-26T16:01:47.925Z,1632
2016-09-26T16:02:05.224Z,6237
2016-09-26T16:02:24.939Z,36032
2016-09-26T16:02:46.087Z,93580
2016-09-26T16:03:10.744Z,203701
2016-09-26T16:03:25.864Z,183221
2016-09-26T16:03:49.201Z,30209
2016-09-26T16:04:09.147Z,18526
2016-09-26T16:04:26.043Z,8713
2016-09-26T16:04:39.944Z,2592
2016-09-26T16:04:59.845Z,643
2016-09-26T16:05:19.579Z,261629
2016-09-26T16:05:39.620Z,260999
2016-09-26T16:05:53.712Z,260513
2016-09-26T16:06:11.022Z,259711
2016-09-26T16:06:29.092Z,258752
2016-09-26T16:06:47.000Z,13902
2016-09-26T16:07:12.686Z,140001
2016-09-26T16:07:37.265Z,38972
2016-09-26T16:07:58.283Z,35044
2016-09-26T16:08:22.104Z,30808
2016-09-26T16:08:36.471Z,28630
2016-09-26T16:08:47.806Z,27660
2016-09-26T16:09:24.843Z,25309
2016-09-26T17:29:42.177Z,52
2016-09-26T17:30:03.641Z,52
2016-09-26T17:30:27.233Z,52
2016-09-26T17:30:57.101Z,62
2016-09-26T17:31:23.102Z,62
2016-09-26T17:31:44.735Z,62
2016-09-26T17:32:04.951Z,43
2016-09-26T17:32:23.239Z,43
2016-09-26T17:51:29.616Z,15
2016-09-26T17:51:44.703Z,15
2016-09-26T17:51:58.419Z,15
2016-09-26T17:52:13.435Z,15
2016-09-26T17:52:31.022Z,15
2016-09-26T17:52:48.779Z,15
2016-09-26T17:53:03.707Z,15
2016-09-26T17:53:18.672Z,15
2016-09-26T17:53:31.282Z,15
2016-09-26T17:53:50.020Z,15
2016-09-26T17:54:05.251Z,15
2016-09-26T17:54:28.516Z,15
2016-09-26T17:54:53.424Z,15
2016-09-26T17:55:14.996Z,15
2016-09-26T17:55:30.492Z,15
2016-09-26T17:55:52.672Z,15
2016-09-26T17:56:07.603Z,15
2016-09-26T17:56:25.949Z,15
2016-09-26T17:56:44.358Z,15
